createdAt,value
2019-01-29T00:00:01.737Z,-6.36
2019-01-29T00:01:01.737Z,-6.25
2019-01-29T00:02:01.744Z,-6.21
2019-01-29T00:03:01.741Z,-6.22
2019-01-29T00:04:01.742Z,-6.28
2019-01-29T00:05:01.744Z,-6.23
2019-01-29T00:06:01.743Z,-6.21
2019-01-29T00:07:01.747Z,-6.16
2019-01-29T00:08:01.748Z,-6.21
2019-01-29T00:09:01.750Z,-6.18
2019-01-29T00:10:01.762Z,-6.21
2019-01-29T00:11:01.756Z,-6.16
2019-01-29T00:12:01.754Z,-6.21
2019-01-29T00:13:01.753Z,-6.18
2019-01-29T00:14:01.753Z,-6.16
2019-01-29T00:15:01.760Z,-6.10
2019-01-29T00:16:01.757Z,-6.11
2019-01-29T00:17:01.757Z,-6.10
2019-01-29T00:18:01.765Z,-6.21
2019-01-29T00:19:01.761Z,-6.26
2019-01-29T00:20:01.761Z,-6.22
2019-01-29T00:21:01.763Z,-6.18
2019-01-29T00:22:01.764Z,-6.23
2019-01-29T00:23:01.764Z,-6.25
2019-01-29T00:24:01.767Z,-6.25
2019-01-29T00:25:01.778Z,-6.23
2019-01-29T00:26:01.768Z,-6.28
2019-01-29T00:27:01.772Z,-6.22
2019-01-29T00:28:01.770Z,-6.22
2019-01-29T00:29:01.772Z,-6.32
2019-01-29T00:30:01.774Z,-6.25
2019-01-29T00:31:01.775Z,-6.25
2019-01-29T00:32:01.779Z,-6.26
2019-01-29T00:33:01.777Z,-6.29
2019-01-29T00:34:01.778Z,-6.26
2019-01-29T00:35:01.784Z,-6.31
2019-01-29T00:36:01.781Z,-6.29
2019-01-29T00:37:01.787Z,-6.28
2019-01-29T00:38:01.784Z,-6.25
2019-01-29T00:39:01.786Z,-6.21
2019-01-29T00:40:01.792Z,-6.22
2019-01-29T00:41:01.789Z,-6.19
2019-01-29T00:42:01.791Z,-6.23
2019-01-29T00:43:01.792Z,-6.11
2019-01-29T00:44:01.789Z,-6.19
2019-01-29T00:45:01.791Z,-6.15
2019-01-29T00:46:01.796Z,-6.13
2019-01-29T00:47:01.798Z,-6.22
2019-01-29T00:48:01.798Z,-6.11
2019-01-29T00:49:01.796Z,-6.16
2019-01-29T00:50:01.798Z,-6.21
2019-01-29T00:51:01.806Z,-6.22
2019-01-29T00:52:01.802Z,-6.13
2019-01-29T00:53:01.802Z,-6.19
2019-01-29T00:54:01.804Z,-6.31
2019-01-29T00:55:01.828Z,-6.31
2019-01-29T00:56:01.819Z,-6.23
2019-01-29T00:57:01.808Z,-6.34
2019-01-29T00:58:01.810Z,-6.22
2019-01-29T00:59:01.812Z,-6.32
2019-01-29T01:00:01.811Z,-6.37
2019-01-29T01:01:01.811Z,-6.37
2019-01-29T01:02:01.811Z,-6.40
2019-01-29T01:03:01.817Z,-6.36
2019-01-29T01:04:01.817Z,-6.40
2019-01-29T01:05:01.819Z,-6.39
2019-01-29T01:06:01.817Z,-6.37
2019-01-29T01:07:01.821Z,-6.32
2019-01-29T01:08:01.820Z,-6.34
2019-01-29T01:09:01.823Z,-6.26
2019-01-29T01:10:01.826Z,-6.22
2019-01-29T01:11:01.825Z,-6.29
2019-01-29T01:12:01.826Z,-6.22
2019-01-29T01:13:01.827Z,-6.18
2019-01-29T01:14:01.827Z,-6.23
2019-01-29T01:15:01.829Z,-6.23
2019-01-29T01:16:01.828Z,-6.22
2019-01-29T01:17:01.829Z,-6.25
2019-01-29T01:18:01.832Z,-6.25
2019-01-29T01:19:01.831Z,-6.25
2019-01-29T01:20:01.833Z,-6.37
2019-01-29T01:21:01.834Z,-6.40
2019-01-29T01:22:01.836Z,-6.36
2019-01-29T01:23:01.837Z,-6.34
2019-01-29T01:24:01.838Z,-6.32
2019-01-29T01:25:01.844Z,-6.44
2019-01-29T01:26:01.840Z,-6.47
2019-01-29T01:27:01.843Z,-6.50
2019-01-29T01:28:01.843Z,-6.49
2019-01-29T01:29:01.845Z,-6.54
2019-01-29T01:30:01.848Z,-6.54
2019-01-29T01:31:01.845Z,-6.58
2019-01-29T01:32:01.845Z,-6.59
2019-01-29T01:33:01.848Z,-6.61
2019-01-29T01:34:01.850Z,-6.49
2019-01-29T01:35:01.851Z,-6.43
2019-01-29T01:36:01.852Z,-6.46
2019-01-29T01:37:01.853Z,-6.54
2019-01-29T01:38:01.852Z,-6.61
2019-01-29T01:39:01.853Z,-6.59
2019-01-29T01:40:01.862Z,-6.54
2019-01-29T01:41:01.854Z,-6.58
2019-01-29T01:42:01.857Z,-6.62
2019-01-29T01:43:01.857Z,-6.54
2019-01-29T01:44:01.860Z,-6.61
2019-01-29T01:45:01.859Z,-6.59
2019-01-29T01:46:01.858Z,-6.63
2019-01-29T01:47:01.862Z,-6.62
2019-01-29T01:48:01.863Z,-6.59
2019-01-29T01:49:01.864Z,-6.62
2019-01-29T01:50:01.867Z,-6.63
2019-01-29T01:51:01.865Z,-6.61
2019-01-29T01:52:01.864Z,-6.62
2019-01-29T01:53:01.866Z,-6.59
2019-01-29T01:54:01.869Z,-6.62
2019-01-29T01:55:01.889Z,-6.61
2019-01-29T01:56:01.871Z,-6.61
2019-01-29T01:57:01.868Z,-6.58
2019-01-29T01:58:01.870Z,-6.61
2019-01-29T01:59:01.874Z,-6.55
2019-01-29T02:00:01.874Z,-6.58
2019-01-29T02:01:01.874Z,-6.55
2019-01-29T02:02:01.876Z,-6.62
2019-01-29T02:03:01.874Z,-6.59
2019-01-29T02:04:01.875Z,-6.61
2019-01-29T02:05:01.875Z,-6.61
2019-01-29T02:06:01.877Z,-6.58
2019-01-29T02:07:01.878Z,-6.54
2019-01-29T02:08:01.879Z,-6.52
2019-01-29T02:09:01.881Z,-6.42
2019-01-29T02:10:01.882Z,-6.44
2019-01-29T02:11:01.886Z,-6.49
2019-01-29T02:12:01.882Z,-6.43
2019-01-29T02:13:01.896Z,-6.52
2019-01-29T02:14:01.890Z,-6.44
2019-01-29T02:15:01.886Z,-6.50
2019-01-29T02:16:01.887Z,-6.40
2019-01-29T02:17:01.893Z,-6.55
2019-01-29T02:18:01.891Z,-6.47
2019-01-29T02:19:01.889Z,-6.47
2019-01-29T02:20:01.892Z,-6.50
2019-01-29T02:21:01.892Z,-6.58
2019-01-29T02:22:01.896Z,-6.62
2019-01-29T02:23:07.805Z,-6.63
2019-01-29T02:24:01.893Z,-6.63
2019-01-29T02:25:01.898Z,-6.65
2019-01-29T02:26:01.896Z,-6.61
2019-01-29T02:27:01.897Z,-6.61
2019-01-29T02:28:01.897Z,-6.61
2019-01-29T02:29:01.902Z,-6.59
2019-01-29T02:30:01.900Z,-6.58
2019-01-29T02:31:01.900Z,-6.54
2019-01-29T02:32:01.901Z,-6.58
2019-01-29T02:33:01.906Z,-6.61
2019-01-29T02:34:01.905Z,-6.59
2019-01-29T02:35:01.905Z,-6.47
2019-01-29T02:36:01.906Z,-6.49
2019-01-29T02:37:01.904Z,-6.44
2019-01-29T02:38:01.911Z,-6.46
2019-01-29T02:39:01.959Z,-6.47
2019-01-29T02:40:01.977Z,-6.47
2019-01-29T02:41:01.920Z,-6.46
2019-01-29T02:42:01.909Z,-6.54
2019-01-29T02:43:01.921Z,-6.46
2019-01-29T02:44:01.909Z,-6.47
2019-01-29T02:45:01.916Z,-6.49
2019-01-29T02:46:01.911Z,-6.49
2019-01-29T02:47:01.912Z,-6.50
2019-01-29T02:48:01.916Z,-6.52
2019-01-29T02:49:01.931Z,-6.47
2019-01-29T02:50:01.925Z,-6.44
2019-01-29T02:51:01.921Z,-6.58
2019-01-29T02:52:01.917Z,-6.54
2019-01-29T02:53:01.919Z,-6.54
2019-01-29T02:54:01.919Z,-6.55
2019-01-29T02:55:01.922Z,-6.49
2019-01-29T02:56:01.922Z,-6.47
2019-01-29T02:57:01.923Z,-6.58
2019-01-29T02:58:01.924Z,-6.58
2019-01-29T02:59:01.928Z,-6.61
2019-01-29T03:00:01.927Z,-6.62
2019-01-29T03:01:01.927Z,-6.71
2019-01-29T03:02:01.925Z,-6.62
2019-01-29T03:03:01.928Z,-6.77
2019-01-29T03:04:01.926Z,-6.76
2019-01-29T03:05:01.927Z,-6.84
2019-01-29T03:06:01.931Z,-6.91
2019-01-29T03:07:01.930Z,-6.76
2019-01-29T03:08:01.975Z,-6.89
2019-01-29T03:09:01.931Z,-6.92
2019-01-29T03:10:01.935Z,-6.97
2019-01-29T03:11:01.935Z,-6.94
2019-01-29T03:12:01.937Z,-6.98
2019-01-29T03:13:01.937Z,-6.97
2019-01-29T03:14:01.935Z,-7.00
2019-01-29T03:15:01.997Z,-7.07
2019-01-29T03:16:01.940Z,-7.07
2019-01-29T03:17:01.940Z,-6.97
2019-01-29T03:18:01.941Z,-7.04
2019-01-29T03:19:01.943Z,-7.02
2019-01-29T03:20:01.941Z,-7.11
2019-01-29T03:21:01.945Z,-7.05
2019-01-29T03:22:01.952Z,-7.02
2019-01-29T03:23:01.942Z,-7.01
2019-01-29T03:24:01.944Z,-7.01
2019-01-29T03:25:01.950Z,-7.02
2019-01-29T03:26:01.947Z,-6.98
2019-01-29T03:27:01.947Z,-7.05
2019-01-29T03:28:01.944Z,-7.01
2019-01-29T03:29:01.954Z,-7.11
2019-01-29T03:30:02.027Z,-7.05
2019-01-29T03:31:01.957Z,-7.01
2019-01-29T03:32:01.953Z,-7.02
2019-01-29T03:33:02.070Z,-6.95
2019-01-29T03:34:01.948Z,-7.00
2019-01-29T03:35:02.397Z,-7.02
2019-01-29T03:36:01.949Z,-7.00
2019-01-29T03:37:01.952Z,-7.04
2019-01-29T03:38:01.956Z,-7.00
2019-01-29T03:39:01.952Z,-7.04
2019-01-29T03:40:01.956Z,-6.91
2019-01-29T03:41:01.977Z,-7.07
2019-01-29T03:42:01.955Z,-6.97
2019-01-29T03:43:02.025Z,-7.01
2019-01-29T03:44:01.954Z,-7.16
2019-01-29T03:45:01.965Z,-7.08
2019-01-29T03:46:01.957Z,-7.11
2019-01-29T03:47:01.961Z,-7.04
2019-01-29T03:48:01.959Z,-7.15
2019-01-29T03:49:01.961Z,-7.07
2019-01-29T03:50:01.958Z,-7.02
2019-01-29T03:51:01.961Z,-7.16
2019-01-29T03:52:01.960Z,-7.12
2019-01-29T03:53:01.959Z,-7.08
2019-01-29T03:54:01.960Z,-7.04
2019-01-29T03:55:01.967Z,-7.16
2019-01-29T03:56:01.970Z,-7.08
2019-01-29T03:57:01.964Z,-7.11
2019-01-29T03:58:01.961Z,-7.12
2019-01-29T03:59:01.968Z,-7.04
2019-01-29T04:00:01.964Z,-7.02
2019-01-29T04:01:01.968Z,-7.11
2019-01-29T04:02:01.968Z,-7.08
2019-01-29T04:03:01.965Z,-7.08
2019-01-29T04:04:01.977Z,-7.13
2019-01-29T04:05:01.967Z,-7.19
2019-01-29T04:06:01.965Z,-7.26
2019-01-29T04:07:01.970Z,-7.34
2019-01-29T04:08:01.968Z,-7.34
2019-01-29T04:09:01.976Z,-7.33
2019-01-29T04:10:01.969Z,-7.37
2019-01-29T04:11:01.969Z,-7.31
2019-01-29T04:12:01.977Z,-7.33
2019-01-29T04:13:01.971Z,-7.34
2019-01-29T04:14:01.971Z,-7.37
2019-01-29T04:15:01.970Z,-7.44
2019-01-29T04:16:01.974Z,-7.39
2019-01-29T04:17:01.968Z,-7.41
2019-01-29T04:18:01.986Z,-7.46
2019-01-29T04:19:01.973Z,-7.50
2019-01-29T04:20:01.972Z,-7.43
2019-01-29T04:21:01.970Z,-7.50
2019-01-29T04:22:01.971Z,-7.48
2019-01-29T04:23:01.975Z,-7.43
2019-01-29T04:24:01.969Z,-7.41
2019-01-29T04:25:01.976Z,-7.50
2019-01-29T04:26:01.970Z,-7.50
2019-01-29T04:27:01.968Z,-7.58
2019-01-29T04:28:02.036Z,-7.51
2019-01-29T04:29:01.969Z,-7.48
2019-01-29T04:30:01.967Z,-7.51
2019-01-29T04:31:01.969Z,-7.50
2019-01-29T04:32:01.967Z,-7.44
2019-01-29T04:33:01.969Z,-7.46
2019-01-29T04:34:01.970Z,-7.41
2019-01-29T04:35:01.968Z,-7.46
2019-01-29T04:36:01.964Z,-7.39
2019-01-29T04:37:01.967Z,-7.41
2019-01-29T04:38:01.967Z,-7.36
2019-01-29T04:39:01.965Z,-7.29
2019-01-29T04:40:01.963Z,-7.36
2019-01-29T04:41:01.963Z,-7.29
2019-01-29T04:42:01.965Z,-7.19
2019-01-29T04:43:01.965Z,-7.16
2019-01-29T04:44:02.031Z,-7.15
2019-01-29T04:45:02.012Z,-7.16
2019-01-29T04:46:01.966Z,-7.11
2019-01-29T04:47:01.982Z,-7.08
2019-01-29T04:48:01.964Z,-7.13
2019-01-29T04:49:01.962Z,-7.07
2019-01-29T04:50:01.962Z,-7.16
2019-01-29T04:51:01.963Z,-7.13
2019-01-29T04:52:01.963Z,-7.00
2019-01-29T04:53:01.960Z,-7.15
2019-01-29T04:54:01.967Z,-7.15
2019-01-29T04:55:01.967Z,-7.12
2019-01-29T04:56:01.964Z,-7.16
2019-01-29T04:57:01.969Z,-7.15
2019-01-29T04:58:01.962Z,-7.12
2019-01-29T04:59:01.963Z,-7.11
2019-01-29T05:00:01.960Z,-7.12
2019-01-29T05:01:01.960Z,-7.18
2019-01-29T05:02:01.963Z,-7.18
2019-01-29T05:03:01.965Z,-7.18
2019-01-29T05:04:01.963Z,-7.11
2019-01-29T05:05:01.963Z,-7.05
2019-01-29T05:06:01.963Z,-7.11
2019-01-29T05:07:01.978Z,-7.07
2019-01-29T05:08:01.961Z,-7.02
2019-01-29T05:09:01.962Z,-7.07
2019-01-29T05:10:01.967Z,-7.08
2019-01-29T05:11:01.964Z,-7.13
2019-01-29T05:12:01.964Z,-7.05
2019-01-29T05:13:01.962Z,-7.15
2019-01-29T05:14:01.963Z,-7.07
2019-01-29T05:15:01.965Z,-7.15
2019-01-29T05:16:01.963Z,-7.13
2019-01-29T05:17:01.964Z,-7.11
2019-01-29T05:18:01.967Z,-7.02
2019-01-29T05:19:01.964Z,-7.01
2019-01-29T05:20:01.963Z,-7.05
2019-01-29T05:21:01.964Z,-7.08
2019-01-29T05:22:01.967Z,-7.07
2019-01-29T05:23:01.972Z,-7.07
2019-01-29T05:24:07.049Z,-7.08
2019-01-29T05:25:01.975Z,-7.07
2019-01-29T05:26:01.969Z,-7.05
2019-01-29T05:27:01.968Z,-7.04
2019-01-29T05:28:01.964Z,-7.12
2019-01-29T05:29:01.966Z,-7.15
2019-01-29T05:30:01.967Z,-7.13
2019-01-29T05:31:01.966Z,-7.13
2019-01-29T05:32:01.966Z,-7.16
2019-01-29T05:33:01.971Z,-7.11
2019-01-29T05:34:01.969Z,-7.13
2019-01-29T05:35:01.972Z,-7.12
2019-01-29T05:36:01.971Z,-7.19
2019-01-29T05:37:01.973Z,-7.25
2019-01-29T05:38:04.073Z,-7.22
2019-01-29T05:39:01.970Z,-7.30
2019-01-29T05:40:02.003Z,-7.37
2019-01-29T05:41:01.971Z,-7.36
2019-01-29T05:42:01.973Z,-7.50
2019-01-29T05:43:01.973Z,-7.48
2019-01-29T05:44:01.970Z,-7.57
2019-01-29T05:45:01.972Z,-7.66
2019-01-29T05:46:01.970Z,-7.69
2019-01-29T05:47:01.971Z,-7.66
2019-01-29T05:48:01.992Z,-7.62
2019-01-29T05:49:01.973Z,-7.58
2019-01-29T05:50:02.005Z,-7.55
2019-01-29T05:51:01.971Z,-7.64
2019-01-29T05:52:01.973Z,-7.57
2019-01-29T05:53:01.977Z,-7.51
2019-01-29T05:54:01.975Z,-7.57
2019-01-29T05:55:01.977Z,-7.48
2019-01-29T05:56:01.975Z,-7.54
2019-01-29T05:57:01.980Z,-7.57
2019-01-29T05:58:02.101Z,-7.66
2019-01-29T05:59:01.973Z,-7.64
2019-01-29T06:00:01.978Z,-7.62
2019-01-29T06:01:01.973Z,-7.64
2019-01-29T06:02:01.977Z,-7.62
2019-01-29T06:03:01.978Z,-7.61
2019-01-29T06:04:01.980Z,-7.64
2019-01-29T06:05:01.980Z,-7.62
2019-01-29T06:06:01.974Z,-7.64
2019-01-29T06:07:01.977Z,-7.62
2019-01-29T06:08:01.974Z,-7.61
2019-01-29T06:09:01.974Z,-7.57
2019-01-29T06:10:01.975Z,-7.64
2019-01-29T06:11:01.978Z,-7.58
2019-01-29T06:12:01.977Z,-7.68
2019-01-29T06:13:01.980Z,-7.60
2019-01-29T06:14:01.978Z,-7.66
2019-01-29T06:15:01.975Z,-7.72
2019-01-29T06:16:01.980Z,-7.66
2019-01-29T06:17:01.977Z,-7.69
2019-01-29T06:18:01.976Z,-7.71
2019-01-29T06:19:01.980Z,-7.71
2019-01-29T06:20:01.976Z,-7.68
2019-01-29T06:21:01.976Z,-7.66
2019-01-29T06:22:01.975Z,-7.71
2019-01-29T06:23:01.990Z,-7.69
2019-01-29T06:24:01.975Z,-7.66
2019-01-29T06:25:02.051Z,-7.71
2019-01-29T06:26:01.975Z,-7.73
2019-01-29T06:27:01.977Z,-7.68
2019-01-29T06:28:01.976Z,-7.62
2019-01-29T06:29:01.974Z,-7.68
2019-01-29T06:30:01.979Z,-7.61
2019-01-29T06:31:01.977Z,-7.71
2019-01-29T06:32:01.975Z,-7.72
2019-01-29T06:33:01.978Z,-7.71
2019-01-29T06:34:01.983Z,-7.68
2019-01-29T06:35:01.983Z,-7.72
2019-01-29T06:36:01.978Z,-7.68
2019-01-29T06:37:01.979Z,-7.71
2019-01-29T06:38:01.975Z,-7.66
2019-01-29T06:39:01.976Z,-7.64
2019-01-29T06:40:01.977Z,-7.66
2019-01-29T06:41:01.975Z,-7.71
2019-01-29T06:42:01.977Z,-7.79
2019-01-29T06:43:01.977Z,-7.82
2019-01-29T06:44:01.977Z,-7.82
2019-01-29T06:45:01.977Z,-7.82
2019-01-29T06:46:01.976Z,-7.80
2019-01-29T06:47:01.977Z,-7.78
2019-01-29T06:48:01.981Z,-7.73
2019-01-29T06:49:01.985Z,-7.76
2019-01-29T06:50:01.987Z,-7.89
2019-01-29T06:51:01.977Z,-7.97
2019-01-29T06:52:01.979Z,-7.94
2019-01-29T06:53:01.988Z,-8.02
2019-01-29T06:54:01.978Z,-8.01
2019-01-29T06:55:01.980Z,-7.97
2019-01-29T06:56:01.978Z,-7.93
2019-01-29T06:57:01.977Z,-7.96
2019-01-29T06:58:01.983Z,-7.97
2019-01-29T06:59:01.978Z,-7.94
2019-01-29T07:00:01.994Z,-7.89
2019-01-29T07:01:01.980Z,-7.82
2019-01-29T07:02:01.977Z,-7.82
2019-01-29T07:03:01.979Z,-7.79
2019-01-29T07:04:01.977Z,-7.76
2019-01-29T07:05:01.986Z,-7.87
2019-01-29T07:06:01.985Z,-7.71
2019-01-29T07:07:01.980Z,-7.78
2019-01-29T07:08:01.977Z,-7.66
2019-01-29T07:09:01.981Z,-7.73
2019-01-29T07:10:01.979Z,-7.68
2019-01-29T07:11:01.982Z,-7.72
2019-01-29T07:12:01.979Z,-7.73
2019-01-29T07:13:01.978Z,-7.76
2019-01-29T07:14:01.979Z,-7.79
2019-01-29T07:15:01.982Z,-7.79
2019-01-29T07:16:01.980Z,-7.78
2019-01-29T07:17:01.977Z,-7.79
2019-01-29T07:18:01.981Z,-7.75
2019-01-29T07:19:01.978Z,-7.78
2019-01-29T07:20:01.980Z,-7.73
2019-01-29T07:21:01.977Z,-7.80
2019-01-29T07:22:01.981Z,-7.82
2019-01-29T07:23:01.982Z,-7.72
2019-01-29T07:24:01.983Z,-7.76
2019-01-29T07:25:01.978Z,-7.78
2019-01-29T07:26:01.989Z,-7.79
2019-01-29T07:27:01.983Z,-7.73
2019-01-29T07:28:01.978Z,-7.76
2019-01-29T07:29:01.983Z,-7.80
2019-01-29T07:30:01.981Z,-7.80
2019-01-29T07:31:01.978Z,-7.75
2019-01-29T07:32:01.979Z,-7.83
2019-01-29T07:33:01.988Z,-7.79
2019-01-29T07:34:01.982Z,-7.72
2019-01-29T07:35:01.984Z,-7.80
2019-01-29T07:36:01.981Z,-7.79
2019-01-29T07:37:01.979Z,-7.75
2019-01-29T07:38:01.983Z,-7.73
2019-01-29T07:39:01.981Z,-7.78
2019-01-29T07:40:01.978Z,-7.76
2019-01-29T07:41:01.980Z,-7.76
2019-01-29T07:42:01.980Z,-7.79
2019-01-29T07:43:01.984Z,-7.83
2019-01-29T07:44:01.983Z,-7.80
2019-01-29T07:45:01.981Z,-7.82
2019-01-29T07:46:01.986Z,-7.78
2019-01-29T07:47:02.036Z,-7.73
2019-01-29T07:48:01.985Z,-7.83
2019-01-29T07:49:01.985Z,-7.80
2019-01-29T07:50:02.010Z,-7.76
2019-01-29T07:51:01.982Z,-7.90
2019-01-29T07:52:01.985Z,-7.97
2019-01-29T07:53:01.984Z,-7.86
2019-01-29T07:54:01.983Z,-7.89
2019-01-29T07:55:01.991Z,-7.94
2019-01-29T07:56:01.983Z,-7.89
2019-01-29T07:57:01.982Z,-7.94
2019-01-29T07:58:01.986Z,-7.94
2019-01-29T07:59:01.983Z,-7.93
2019-01-29T08:00:01.986Z,-7.96
2019-01-29T08:01:01.984Z,-7.91
2019-01-29T08:02:01.983Z,-7.94
2019-01-29T08:03:01.983Z,-7.87
2019-01-29T08:04:01.982Z,-7.94
2019-01-29T08:05:01.984Z,-7.89
2019-01-29T08:06:01.985Z,-7.83
2019-01-29T08:07:01.989Z,-7.87
2019-01-29T08:08:01.984Z,-7.83
2019-01-29T08:09:01.987Z,-7.93
2019-01-29T08:10:01.984Z,-7.93
2019-01-29T08:11:01.989Z,-7.91
2019-01-29T08:12:01.992Z,-7.96
2019-01-29T08:13:01.987Z,-7.89
2019-01-29T08:14:01.984Z,-7.96
2019-01-29T08:15:01.984Z,-7.90
2019-01-29T08:16:01.987Z,-7.82
2019-01-29T08:17:01.987Z,-7.82
2019-01-29T08:18:01.986Z,-7.90
2019-01-29T08:19:01.983Z,-7.96
2019-01-29T08:20:01.987Z,-7.90
2019-01-29T08:21:01.982Z,-7.83
2019-01-29T08:22:01.986Z,-7.79
2019-01-29T08:23:01.983Z,-7.78
2019-01-29T08:24:01.984Z,-7.73
2019-01-29T08:25:02.349Z,-7.76
2019-01-29T08:26:01.982Z,-7.83
2019-01-29T08:27:01.983Z,-7.79
2019-01-29T08:28:01.981Z,-7.71
2019-01-29T08:29:01.984Z,-7.62
2019-01-29T08:30:01.992Z,-7.55
2019-01-29T08:31:01.982Z,-7.34
2019-01-29T08:32:01.981Z,-7.23
2019-01-29T08:33:01.985Z,-7.16
2019-01-29T08:34:01.982Z,-7.07
2019-01-29T08:35:01.984Z,-6.94
2019-01-29T08:36:01.985Z,-6.77
2019-01-29T08:37:01.983Z,-6.63
2019-01-29T08:38:01.983Z,-6.58
2019-01-29T08:39:01.981Z,-6.43
2019-01-29T08:40:01.987Z,-6.32
2019-01-29T08:41:01.982Z,-6.36
2019-01-29T08:42:01.982Z,-6.19
2019-01-29T08:43:01.984Z,-6.01
2019-01-29T08:44:01.983Z,-6.01
2019-01-29T08:45:01.996Z,-5.89
2019-01-29T08:46:01.986Z,-5.93
2019-01-29T08:47:01.988Z,-5.80
2019-01-29T08:48:01.992Z,-5.76
2019-01-29T08:49:01.987Z,-5.68
2019-01-29T08:50:01.988Z,-5.65
2019-01-29T08:51:03.718Z,-5.53
2019-01-29T08:52:01.995Z,-5.48
2019-01-29T08:53:01.999Z,-5.66
2019-01-29T08:54:01.992Z,-5.79
2019-01-29T08:55:10.265Z,-5.90
2019-01-29T08:56:01.995Z,-5.89
2019-01-29T08:57:01.995Z,-5.82
2019-01-29T08:58:02.001Z,-5.83
2019-01-29T08:59:02.002Z,-5.79
2019-01-29T09:00:02.004Z,-5.66
2019-01-29T09:01:01.999Z,-5.61
2019-01-29T09:02:02.004Z,-5.76
2019-01-29T09:03:02.051Z,-5.72
2019-01-29T09:04:02.005Z,-5.89
2019-01-29T09:05:02.007Z,-5.72
2019-01-29T09:06:02.008Z,-5.72
2019-01-29T09:07:02.010Z,-5.87
2019-01-29T09:08:02.013Z,-5.89
2019-01-29T09:09:02.009Z,-5.92
2019-01-29T09:10:02.018Z,-5.79
2019-01-29T09:11:02.015Z,-5.65
2019-01-29T09:12:02.016Z,-5.59
2019-01-29T09:13:02.019Z,-5.69
2019-01-29T09:14:02.020Z,-5.61
2019-01-29T09:15:02.027Z,-5.48
2019-01-29T09:16:02.019Z,-5.53
2019-01-29T09:17:02.022Z,-5.62
2019-01-29T09:18:02.025Z,-5.72
2019-01-29T09:19:02.027Z,-5.69
2019-01-29T09:20:03.242Z,-5.57
2019-01-29T09:21:02.031Z,-5.43
2019-01-29T09:22:02.032Z,-5.39
2019-01-29T09:23:02.109Z,-5.25
2019-01-29T09:24:02.032Z,-5.32
2019-01-29T09:25:02.034Z,-5.39
2019-01-29T09:26:02.037Z,-5.18
2019-01-29T09:27:02.049Z,-5.14
2019-01-29T09:28:02.115Z,-5.39
2019-01-29T09:29:02.042Z,-5.33
2019-01-29T09:30:02.053Z,-5.50
2019-01-29T09:31:02.047Z,-5.25
2019-01-29T09:32:02.045Z,-5.03
2019-01-29T09:33:02.053Z,-5.11
2019-01-29T09:34:02.056Z,-4.92
2019-01-29T09:35:02.053Z,-4.83
2019-01-29T09:36:02.056Z,-4.72
2019-01-29T09:37:02.059Z,-4.75
2019-01-29T09:38:02.058Z,-4.61
2019-01-29T09:39:02.060Z,-4.61
2019-01-29T09:40:02.064Z,-5.10
2019-01-29T09:41:02.064Z,-5.10
2019-01-29T09:42:02.065Z,-4.99
2019-01-29T09:43:02.066Z,-4.77
2019-01-29T09:44:02.067Z,-4.51
2019-01-29T09:45:02.077Z,-4.14
2019-01-29T09:46:02.071Z,-3.86
2019-01-29T09:47:02.078Z,-3.57
2019-01-29T09:48:02.075Z,-3.56
2019-01-29T09:49:02.082Z,-3.86
2019-01-29T09:50:02.081Z,-3.99
2019-01-29T09:51:02.083Z,-4.24
2019-01-29T09:52:02.088Z,-4.58
2019-01-29T09:53:02.091Z,-4.53
2019-01-29T09:54:02.094Z,-4.39
2019-01-29T09:55:02.098Z,-3.93
2019-01-29T09:56:02.101Z,-3.78
2019-01-29T09:57:02.100Z,-3.88
2019-01-29T09:58:02.103Z,-4.15
2019-01-29T09:59:02.111Z,-4.32
2019-01-29T10:00:02.114Z,-4.12
2019-01-29T10:01:02.112Z,-3.86
2019-01-29T10:02:02.114Z,-3.83
2019-01-29T10:03:02.119Z,-3.27
2019-01-29T10:04:02.132Z,-3.43
2019-01-29T10:05:02.125Z,-3.14
2019-01-29T10:06:02.125Z,-3.71
2019-01-29T10:07:02.132Z,-3.72
2019-01-29T10:08:02.138Z,-3.71
2019-01-29T10:09:02.134Z,-3.30
2019-01-29T10:10:02.140Z,-2.78
2019-01-29T10:11:02.140Z,-2.73
2019-01-29T10:12:02.142Z,-2.96
2019-01-29T10:13:02.147Z,-2.52
2019-01-29T10:14:02.148Z,-2.42
2019-01-29T10:15:02.152Z,-2.71
2019-01-29T10:16:02.154Z,-2.40
2019-01-29T10:17:02.161Z,-2.46
2019-01-29T10:18:02.165Z,-2.86
2019-01-29T10:19:02.165Z,-2.61
2019-01-29T10:20:03.058Z,-2.88
2019-01-29T10:21:02.173Z,-2.84
2019-01-29T10:22:02.183Z,-2.43
2019-01-29T10:23:02.181Z,-2.30
2019-01-29T10:24:02.188Z,-1.77
2019-01-29T10:25:02.195Z,-1.33
2019-01-29T10:26:02.195Z,-0.79
2019-01-29T10:27:02.205Z,-1.05
2019-01-29T10:28:02.205Z,-1.38
2019-01-29T10:29:02.210Z,-1.19
2019-01-29T10:30:02.213Z,-1.02
2019-01-29T10:31:02.224Z,-1.19
2019-01-29T10:32:02.220Z,-0.89
2019-01-29T10:33:02.228Z,-0.80
2019-01-29T10:34:02.232Z,-0.79
2019-01-29T10:35:02.235Z,-1.22
2019-01-29T10:36:02.243Z,-1.84
2019-01-29T10:37:02.245Z,-2.00
2019-01-29T10:38:02.248Z,-1.97
2019-01-29T10:39:02.258Z,-2.06
2019-01-29T10:40:02.258Z,-2.10
2019-01-29T10:41:02.264Z,-1.92
2019-01-29T10:42:02.276Z,-2.42
2019-01-29T10:43:02.276Z,-2.56
2019-01-29T10:44:02.282Z,-2.74
2019-01-29T10:45:02.285Z,-2.42
2019-01-29T10:46:02.294Z,-2.53
2019-01-29T10:47:02.300Z,-2.55
2019-01-29T10:48:02.304Z,-2.79
2019-01-29T10:49:02.308Z,-2.94
2019-01-29T10:50:02.314Z,-2.26
2019-01-29T10:51:02.320Z,-2.03
2019-01-29T10:52:02.325Z,-2.30
2019-01-29T10:53:02.328Z,-1.92
2019-01-29T10:54:02.339Z,-2.00
2019-01-29T10:55:02.346Z,-2.49
2019-01-29T10:56:02.346Z,-2.37
2019-01-29T10:57:02.351Z,-2.16
2019-01-29T10:58:02.359Z,-1.84
2019-01-29T10:59:02.362Z,-2.60
2019-01-29T11:00:02.367Z,-2.91
2019-01-29T11:01:02.376Z,-3.17
2019-01-29T11:02:02.380Z,-3.03
2019-01-29T11:03:02.384Z,-3.17
2019-01-29T11:04:02.389Z,-3.69
2019-01-29T11:05:02.397Z,-3.45
2019-01-29T11:06:02.403Z,-2.61
2019-01-29T11:07:02.405Z,-2.52
2019-01-29T11:08:02.417Z,-2.79
2019-01-29T11:09:02.487Z,-3.28
2019-01-29T11:10:02.422Z,-3.63
2019-01-29T11:11:02.427Z,-2.97
2019-01-29T11:12:02.435Z,-2.64
2019-01-29T11:13:02.440Z,-2.85
2019-01-29T11:14:02.443Z,-3.05
2019-01-29T11:15:02.449Z,-2.73
2019-01-29T11:16:02.454Z,-2.63
2019-01-29T11:17:02.460Z,-2.26
2019-01-29T11:18:02.467Z,-1.98
2019-01-29T11:19:03.471Z,-1.70
2019-01-29T11:20:02.477Z,-1.41
2019-01-29T11:21:02.501Z,-1.27
2019-01-29T11:22:02.487Z,-1.97
2019-01-29T11:23:02.492Z,-2.16
2019-01-29T11:24:02.498Z,-2.12
2019-01-29T11:25:02.507Z,-1.62
2019-01-29T11:26:02.515Z,-1.82
2019-01-29T11:27:02.514Z,-2.16
2019-01-29T11:28:02.521Z,-2.43
2019-01-29T11:29:02.530Z,-2.70
2019-01-29T11:30:02.537Z,-2.43
2019-01-29T11:31:02.539Z,-2.49
2019-01-29T11:32:02.542Z,-2.73
2019-01-29T11:33:02.550Z,-2.78
2019-01-29T11:34:02.556Z,-3.02
2019-01-29T11:35:02.559Z,-2.89
2019-01-29T11:36:02.564Z,-2.40
2019-01-29T11:37:02.571Z,-2.37
2019-01-29T11:38:02.578Z,-1.74
2019-01-29T11:39:02.582Z,-1.20
2019-01-29T11:40:02.587Z,-0.94
2019-01-29T11:41:02.594Z,-0.31
2019-01-29T11:42:02.600Z,-0.72
2019-01-29T11:43:02.606Z,-0.79
2019-01-29T11:44:02.611Z,-1.80
2019-01-29T11:45:02.621Z,-2.06
2019-01-29T11:46:02.623Z,-1.49
2019-01-29T11:47:02.627Z,-1.33
2019-01-29T11:48:02.636Z,-1.56
2019-01-29T11:49:02.865Z,-1.25
2019-01-29T11:50:02.656Z,-0.69
2019-01-29T11:51:02.653Z,-1.51
2019-01-29T11:52:02.657Z,-1.95
2019-01-29T11:53:02.664Z,-1.97
2019-01-29T11:54:02.668Z,-1.54
2019-01-29T11:55:02.680Z,-1.13
2019-01-29T11:56:04.829Z,-0.97
2019-01-29T11:57:02.688Z,-0.64
2019-01-29T11:58:02.704Z,-1.19
2019-01-29T11:59:02.703Z,-1.64
2019-01-29T12:00:02.710Z,-1.74
2019-01-29T12:01:04.580Z,-1.94
2019-01-29T12:02:02.720Z,-1.70
2019-01-29T12:03:02.742Z,-1.28
2019-01-29T12:04:02.732Z,-1.41
2019-01-29T12:05:02.738Z,-2.30
2019-01-29T12:06:02.748Z,-1.90
2019-01-29T12:07:02.755Z,-1.94
2019-01-29T12:08:02.766Z,-1.69
2019-01-29T12:09:02.764Z,-1.73
2019-01-29T12:10:02.773Z,-1.69
2019-01-29T12:11:02.779Z,-1.23
2019-01-29T12:12:02.787Z,-1.62
2019-01-29T12:13:02.794Z,-2.66
2019-01-29T12:14:02.800Z,-2.29
2019-01-29T12:15:02.801Z,-2.55
2019-01-29T12:16:02.811Z,-2.12
2019-01-29T12:17:02.817Z,-1.54
2019-01-29T12:18:02.830Z,-2.18
2019-01-29T12:19:02.827Z,-2.21
2019-01-29T12:20:02.836Z,-2.21
2019-01-29T12:21:02.842Z,-2.21
2019-01-29T12:22:02.847Z,-1.94
2019-01-29T12:23:02.856Z,-1.59
2019-01-29T12:24:02.857Z,-1.34
2019-01-29T12:25:02.866Z,-1.87
2019-01-29T12:26:02.868Z,-2.20
2019-01-29T12:27:02.879Z,-1.91
2019-01-29T12:28:02.886Z,-1.22
2019-01-29T12:29:02.889Z,-1.19
2019-01-29T12:30:02.895Z,-0.85
2019-01-29T12:31:02.903Z,-0.25
2019-01-29T12:32:02.908Z,-0.40
2019-01-29T12:33:02.911Z,-1.66
2019-01-29T12:34:02.925Z,-1.95
2019-01-29T12:35:02.925Z,-1.80
2019-01-29T12:36:02.932Z,-1.10
2019-01-29T12:37:02.943Z,-0.86
2019-01-29T12:38:02.942Z,-0.47
2019-01-29T12:39:02.952Z,-1.58
2019-01-29T12:40:02.953Z,-1.22
2019-01-29T12:41:02.963Z,-1.09
2019-01-29T12:42:02.968Z,-1.22
2019-01-29T12:43:02.980Z,-1.55
2019-01-29T12:44:02.989Z,-2.43
2019-01-29T12:45:02.986Z,-2.15
2019-01-29T12:46:02.991Z,-2.66
2019-01-29T12:47:03.000Z,-2.35
2019-01-29T12:48:03.085Z,-2.24
2019-01-29T12:49:03.012Z,-1.98
2019-01-29T12:50:03.020Z,-1.33
2019-01-29T12:51:03.027Z,-1.70
2019-01-29T12:52:03.028Z,-2.34